sensor_id;sensor_type;location;lat;lon;timestamp;pressure;altitude;pressure_sealevel;temperature;humidity
15444;BME280;7822;48.146;11.576;2023-05-02T00:02:23;95188.06;;;15.53;72.75
15444;BME280;7822;48.146;11.576;2023-05-02T00:04:51;95190.69;;;15.53;72.71
15444;BME280;7822;48.146;11.576;2023-05-02T00:07:19;95181.22;;;15.52;72.62
15444;BME280;7822;48.146;11.576;2023-05-02T00:09:46;95184.66;;;15.53;72.52
15444;BME280;7822;48.146;11.576;2023-05-02T00:12:14;95181.22;;;15.52;72.57
15444;BME280;7822;48.146;11.576;2023-05-02T00:14:41;95180.38;;;15.52;72.63
15444;BME280;7822;48.146;11.576;2023-05-02T00:17:16;95186.44;;;15.52;72.62
15444;BME280;7822;48.146;11.576;2023-05-02T00:19:45;95184.66;;;15.53;72.62
15444;BME280;7822;48.146;11.576;2023-05-02T00:22:12;95181.22;;;15.52;72.66
15444;BME280;7822;48.146;11.576;2023-05-02T00:24:40;95184.66;;;15.53;72.48
15444;BME280;7822;48.146;11.576;2023-05-02T00:27:07;95176.81;;;15.53;72.56
15444;BME280;7822;48.146;11.576;2023-05-02T00:29:34;95179.44;;;15.53;72.48
15444;BME280;7822;48.146;11.576;2023-05-02T00:32:02;95181.22;;;15.52;72.60
15444;BME280;7822;48.146;11.576;2023-05-02T00:34:31;95182.84;;;15.53;72.53
15444;BME280;7822;48.146;11.576;2023-05-02T00:36:59;95187.28;;;15.53;72.67
15444;BME280;7822;48.146;11.576;2023-05-02T00:39:26;95186.28;;;15.54;72.53
15444;BME280;7822;48.146;11.576;2023-05-02T00:41:57;95176.81;;;15.53;72.58
15444;BME280;7822;48.146;11.576;2023-05-02T00:44:25;95173.19;;;15.54;72.70
15444;BME280;7822;48.146;11.576;2023-05-02T00:46:52;95177.59;;;15.53;72.88
15444;BME280;7822;48.146;11.576;2023-05-02T00:49:20;95170.59;;;15.54;72.56
15444;BME280;7822;48.146;11.576;2023-05-02T00:51:49;95175.00;;;15.53;72.59
15444;BME280;7822;48.146;11.576;2023-05-02T00:54:17;95182.03;;;15.53;72.70
15444;BME280;7822;48.146;11.576;2023-05-02T00:56:44;95176.81;;;15.53;72.81
15444;BME280;7822;48.146;11.576;2023-05-02T00:59:12;95189.06;;;15.52;72.59
15444;BME280;7822;48.146;11.576;2023-05-02T01:01:43;95176.81;;;15.53;72.29
15444;BME280;7822;48.146;11.576;2023-05-02T01:04:19;95185.44;;;15.53;72.62
15444;BME280;7822;48.146;11.576;2023-05-02T01:06:56;95182.16;;;15.51;72.62
15444;BME280;7822;48.146;11.576;2023-05-02T01:09:28;95186.44;;;15.52;72.61
15444;BME280;7822;48.146;11.576;2023-05-02T01:12:00;95184.66;;;15.53;72.59
15444;BME280;7822;48.146;11.576;2023-05-02T01:14:29;95185.63;;;15.52;72.67
15444;BME280;7822;48.146;11.576;2023-05-02T01:17:00;95185.63;;;15.52;72.64
15444;BME280;7822;48.146;11.576;2023-05-02T01:19:30;95183.00;;;15.52;72.55
15444;BME280;7822;48.146;11.576;2023-05-02T01:22:00;95182.16;;;15.51;72.62
15444;BME280;7822;48.146;11.576;2023-05-02T01:24:29;95176.94;;;15.51;72.47
15444;BME280;7822;48.146;11.576;2023-05-02T01:26:58;95188.22;;;15.52;72.50
15444;BME280;7822;48.146;11.576;2023-05-02T01:29:29;95183.97;;;15.51;72.50
15444;BME280;7822;48.146;11.576;2023-05-02T01:31:57;95186.56;;;15.51;72.53
15444;BME280;7822;48.146;11.576;2023-05-02T01:34:27;95185.78;;;15.50;72.40
15444;BME280;7822;48.146;11.576;2023-05-02T01:36:56;95185.78;;;15.50;72.56
15444;BME280;7822;48.146;11.576;2023-05-02T01:39:25;95183.16;;;15.50;72.53
15444;BME280;7822;48.146;11.576;2023-05-02T01:41:54;95182.16;;;15.51;72.55
15444;BME280;7822;48.146;11.576;2023-05-02T01:44:23;95183.97;;;15.51;72.67
15444;BME280;7822;48.146;11.576;2023-05-02T01:46:53;95183.97;;;15.51;72.52
15444;BME280;7822;48.146;11.576;2023-05-02T01:49:22;95182.34;;;15.50;72.55
15444;BME280;7822;48.146;11.576;2023-05-02T01:51:50;95184.94;;;15.50;72.58
15444;BME280;7822;48.146;11.576;2023-05-02T01:54:19;95189.19;;;15.51;72.44
15444;BME280;7822;48.146;11.576;2023-05-02T01:56:47;95194.41;;;15.51;72.55
15444;BME280;7822;48.146;11.576;2023-05-02T01:59:17;95199.66;;;15.51;72.64
15444;BME280;7822;48.146;11.576;2023-05-02T02:01:45;95200.47;;;15.51;72.70
15444;BME280;7822;48.146;11.576;2023-05-02T02:04:15;95199.66;;;15.51;72.48
15444;BME280;7822;48.146;11.576;2023-05-02T02:06:47;95199.66;;;15.51;72.40
15444;BME280;7822;48.146;11.576;2023-05-02T02:09:17;95197.84;;;15.51;72.58
15444;BME280;7822;48.146;11.576;2023-05-02T02:11:45;95194.41;;;15.51;72.59
15444;BME280;7822;48.146;11.576;2023-05-02T02:14:16;95206.53;;;15.52;72.59
15444;BME280;7822;48.146;11.576;2023-05-02T02:16:44;95211.75;;;15.52;72.54
15444;BME280;7822;48.146;11.576;2023-05-02T02:19:13;95211.75;;;15.52;72.47
15444;BME280;7822;48.146;11.576;2023-05-02T02:21:42;95211.75;;;15.52;72.47
15444;BME280;7822;48.146;11.576;2023-05-02T02:24:13;95216.16;;;15.51;72.59
15444;BME280;7822;48.146;11.576;2023-05-02T02:26:43;95215.19;;;15.52;72.51
15444;BME280;7822;48.146;11.576;2023-05-02T02:29:11;95222.22;;;15.52;72.49
15444;BME280;7822;48.146;11.576;2023-05-02T02:31:39;95210.94;;;15.51;72.55
15444;BME280;7822;48.146;11.576;2023-05-02T02:34:06;95221.38;;;15.51;72.51
15444;BME280;7822;48.146;11.576;2023-05-02T02:36:35;95218.78;;;15.51;72.52
15444;BME280;7822;48.146;11.576;2023-05-02T02:39:11;95224.84;;;15.52;72.64
15444;BME280;7822;48.146;11.576;2023-05-02T02:41:44;95217.16;;;15.50;72.46
15444;BME280;7822;48.146;11.576;2023-05-02T02:44:18;95222.38;;;15.50;72.44
15444;BME280;7822;48.146;11.576;2023-05-02T02:46:49;95222.38;;;15.50;72.49
15444;BME280;7822;48.146;11.576;2023-05-02T02:49:26;95224.16;;;15.50;72.49
15444;BME280;7822;48.146;11.576;2023-05-02T02:51:59;95223.34;;;15.49;72.48
15444;BME280;7822;48.146;11.576;2023-05-02T02:54:32;95226.78;;;15.50;72.62
15444;BME280;7822;48.146;11.576;2023-05-02T02:57:03;95224.16;;;15.50;72.41
15444;BME280;7822;48.146;11.576;2023-05-02T02:59:33;95236.41;;;15.49;72.50
15444;BME280;7822;48.146;11.576;2023-05-02T03:02:03;95230.34;;;15.49;72.55
15444;BME280;7822;48.146;11.576;2023-05-02T03:04:32;95232.00;;;15.50;72.56
15444;BME280;7822;48.146;11.576;2023-05-02T03:07:00;95234.78;;;15.48;72.58
15444;BME280;7822;48.146;11.576;2023-05-02T03:09:40;95242.63;;;15.48;72.57
15444;BME280;7822;48.146;11.576;2023-05-02T03:12:07;95245.25;;;15.48;72.56
15444;BME280;7822;48.146;11.576;2023-05-02T03:14:35;95241.63;;;15.49;72.56
15444;BME280;7822;48.146;11.576;2023-05-02T03:17:03;95240.81;;;15.49;72.41
15444;BME280;7822;48.146;11.576;2023-05-02T03:19:30;95243.44;;;15.49;72.62
15444;BME280;7822;48.146;11.576;2023-05-02T03:21:58;95242.63;;;15.48;72.61
15444;BME280;7822;48.146;11.576;2023-05-02T03:24:25;95243.59;;;15.47;72.46
15444;BME280;7822;48.146;11.576;2023-05-02T03:26:55;95240.00;;;15.48;72.55
15444;BME280;7822;48.146;11.576;2023-05-02T03:29:24;95243.44;;;15.49;72.53
15444;BME280;7822;48.146;11.576;2023-05-02T03:31:52;95245.25;;;15.48;72.56
15444;BME280;7822;48.146;11.576;2023-05-02T03:34:19;95251.28;;;15.49;72.56
15444;BME280;7822;48.146;11.576;2023-05-02T03:36:47;95254.88;;;15.48;72.54
15444;BME280;7822;48.146;11.576;2023-05-02T03:39:15;95247.84;;;15.48;72.53
15444;BME280;7822;48.146;11.576;2023-05-02T03:41:42;95254.72;;;15.49;72.65
15444;BME280;7822;48.146;11.576;2023-05-02T03:44:11;95251.13;;;15.50;72.66
15444;BME280;7822;48.146;11.576;2023-05-02T03:46:39;95252.09;;;15.49;72.45
15444;BME280;7822;48.146;11.576;2023-05-02T03:49:06;95253.75;;;15.50;72.53
15444;BME280;7822;48.146;11.576;2023-05-02T03:51:34;95258.00;;;15.51;72.60
15444;BME280;7822;48.146;11.576;2023-05-02T03:54:01;95256.38;;;15.50;72.41
15444;BME280;7822;48.146;11.576;2023-05-02T03:56:29;95258.16;;;15.50;72.52
15444;BME280;7822;48.146;11.576;2023-05-02T03:58:56;95262.41;;;15.51;72.52
15444;BME280;7822;48.146;11.576;2023-05-02T04:01:25;95263.22;;;15.51;72.47
15444;BME280;7822;48.146;11.576;2023-05-02T04:03:53;95264.22;;;15.50;72.42
15444;BME280;7822;48.146;11.576;2023-05-02T04:06:20;95269.44;;;15.50;72.41
15444;BME280;7822;48.146;11.576;2023-05-02T04:08:48;95272.84;;;15.51;72.62
15444;BME280;7822;48.146;11.576;2023-05-02T04:11:15;95278.09;;;15.51;72.54
15444;BME280;7822;48.146;11.576;2023-05-02T04:13:43;95287.59;;;15.52;72.45
15444;BME280;7822;48.146;11.576;2023-05-02T04:16:10;95281.53;;;15.51;72.51
15444;BME280;7822;48.146;11.576;2023-05-02T04:18:39;95285.94;;;15.51;72.48
15444;BME280;7822;48.146;11.576;2023-05-02T04:21:07;95289.38;;;15.51;72.55
15444;BME280;7822;48.146;11.576;2023-05-02T04:23:35;95291.03;;;15.52;72.39
15444;BME280;7822;48.146;11.576;2023-05-02T04:26:03;95291.16;;;15.51;72.35
15444;BME280;7822;48.146;11.576;2023-05-02T04:28:31;95295.44;;;15.52;72.46
15444;BME280;7822;48.146;11.576;2023-05-02T04:30:58;95304.22;;;15.51;72.28
15444;BME280;7822;48.146;11.576;2023-05-02T04:33:26;95304.22;;;15.51;72.37
15444;BME280;7822;48.146;11.576;2023-05-02T04:35:55;95302.44;;;15.51;72.25
15444;BME280;7822;48.146;11.576;2023-05-02T04:38:22;95309.47;;;15.51;72.62
15444;BME280;7822;48.146;11.576;2023-05-02T04:40:50;95303.44;;;15.50;72.51
15444;BME280;7822;48.146;11.576;2023-05-02T04:43:18;95306.84;;;15.51;72.63
15444;BME280;7822;48.146;11.576;2023-05-02T04:45:47;95315.69;;;15.50;72.49
15444;BME280;7822;48.146;11.576;2023-05-02T04:48:15;95314.69;;;15.51;72.52
15444;BME280;7822;48.146;11.576;2023-05-02T04:50:43;95320.91;;;15.50;72.57
15444;BME280;7822;48.146;11.576;2023-05-02T04:53:12;95325.31;;;15.49;72.50
15444;BME280;7822;48.146;11.576;2023-05-02T04:55:40;95326.97;;;15.50;72.34
15444;BME280;7822;48.146;11.576;2023-05-02T04:58:08;95329.56;;;15.50;72.53
15444;BME280;7822;48.146;11.576;2023-05-02T05:00:35;95328.75;;;15.50;72.50
15444;BME280;7822;48.146;11.576;2023-05-02T05:03:03;95342.78;;;15.49;72.51
15444;BME280;7822;48.146;11.576;2023-05-02T05:05:31;95345.25;;;15.50;72.44
15444;BME280;7822;48.146;11.576;2023-05-02T05:07:59;95342.78;;;15.49;72.35
15444;BME280;7822;48.146;11.576;2023-05-02T05:10:28;95339.19;;;15.50;72.53
15444;BME280;7822;48.146;11.576;2023-05-02T05:12:56;95341.00;;;15.49;72.32
15444;BME280;7822;48.146;11.576;2023-05-02T05:15:23;95350.50;;;15.50;72.43
15444;BME280;7822;48.146;11.576;2023-05-02T05:17:52;95348.69;;;15.51;72.50
15444;BME280;7822;48.146;11.576;2023-05-02T05:20:19;95353.91;;;15.51;72.40
15444;BME280;7822;48.146;11.576;2023-05-02T05:22:47;95357.34;;;15.51;72.27
15444;BME280;7822;48.146;11.576;2023-05-02T05:25:15;95366.84;;;15.52;72.66
15444;BME280;7822;48.146;11.576;2023-05-02T05:27:43;95363.41;;;15.52;72.58
15444;BME280;7822;48.146;11.576;2023-05-02T05:30:11;95358.19;;;15.52;72.47
15444;BME280;7822;48.146;11.576;2023-05-02T05:32:39;95371.25;;;15.52;72.57
15444;BME280;7822;48.146;11.576;2023-05-02T05:35:07;95373.88;;;15.52;72.37
15444;BME280;7822;48.146;11.576;2023-05-02T05:37:34;95368.63;;;15.52;72.47
15444;BME280;7822;48.146;11.576;2023-05-02T05:40:02;95374.69;;;15.52;72.46
15444;BME280;7822;48.146;11.576;2023-05-02T05:42:30;95376.47;;;15.52;72.55
15444;BME280;7822;48.146;11.576;2023-05-02T05:44:59;95382.53;;;15.52;72.35
15444;BME280;7822;48.146;11.576;2023-05-02T05:47:26;95390.38;;;15.52;72.50
15444;BME280;7822;48.146;11.576;2023-05-02T05:49:54;95380.88;;;15.51;72.33
15444;BME280;7822;48.146;11.576;2023-05-02T05:52:22;95392.16;;;15.52;72.33
15444;BME280;7822;48.146;11.576;2023-05-02T05:54:52;95398.34;;;15.51;72.49
15444;BME280;7822;48.146;11.576;2023-05-02T05:57:19;95401.78;;;15.51;72.49
15444;BME280;7822;48.146;11.576;2023-05-02T05:59:47;95400.97;;;15.51;72.32
15444;BME280;7822;48.146;11.576;2023-05-02T06:02:16;95401.97;;;15.50;72.43
15444;BME280;7822;48.146;11.576;2023-05-02T06:04:45;95400.97;;;15.51;72.41
15444;BME280;7822;48.146;11.576;2023-05-02T06:07:12;95404.56;;;15.50;72.39
15444;BME280;7822;48.146;11.576;2023-05-02T06:09:40;95401.97;;;15.50;72.46
15444;BME280;7822;48.146;11.576;2023-05-02T06:12:07;95401.97;;;15.50;72.44
15444;BME280;7822;48.146;11.576;2023-05-02T06:14:35;95408.81;;;15.51;72.41
15444;BME280;7822;48.146;11.576;2023-05-02T06:17:02;95412.41;;;15.50;72.44
15444;BME280;7822;48.146;11.576;2023-05-02T06:19:31;95422.03;;;15.49;72.52
15444;BME280;7822;48.146;11.576;2023-05-02T06:21:58;95415.03;;;15.50;72.46
15444;BME280;7822;48.146;11.576;2023-05-02T06:24:26;95423.03;;;15.48;72.47
15444;BME280;7822;48.146;11.576;2023-05-02T06:26:53;95422.03;;;15.49;72.43
15444;BME280;7822;48.146;11.576;2023-05-02T06:29:21;95425.50;;;15.50;72.41
15444;BME280;7822;48.146;11.576;2023-05-02T06:31:48;95427.13;;;15.51;72.82
15444;BME280;7822;48.146;11.576;2023-05-02T06:34:16;95421.09;;;15.50;72.48
15444;BME280;7822;48.146;11.576;2023-05-02T06:36:45;95428.94;;;15.50;72.45
15444;BME280;7822;48.146;11.576;2023-05-02T06:39:13;95433.19;;;15.51;72.46
15444;BME280;7822;48.146;11.576;2023-05-02T06:41:40;95433.03;;;15.53;72.48
15444;BME280;7822;48.146;11.576;2023-05-02T06:44:08;95430.44;;;15.53;72.56
15444;BME280;7822;48.146;11.576;2023-05-02T06:46:35;95435.66;;;15.53;72.49
15444;BME280;7822;48.146;11.576;2023-05-02T06:49:03;95432.06;;;15.54;72.39
15444;BME280;7822;48.146;11.576;2023-05-02T06:51:30;95433.03;;;15.53;72.39
15444;BME280;7822;48.146;11.576;2023-05-02T06:53:59;95440.72;;;15.54;72.19
15444;BME280;7822;48.146;11.576;2023-05-02T06:56:27;95443.34;;;15.54;72.30
15444;BME280;7822;48.146;11.576;2023-05-02T06:58:54;95450.22;;;15.55;72.44
15444;BME280;7822;48.146;11.576;2023-05-02T07:01:22;95461.50;;;15.56;72.26
15444;BME280;7822;48.146;11.576;2023-05-02T07:03:49;95457.25;;;15.55;72.32
15444;BME280;7822;48.146;11.576;2023-05-02T07:06:17;95459.03;;;15.54;72.33
15444;BME280;7822;48.146;11.576;2023-05-02T07:08:45;95459.03;;;15.54;72.26
15444;BME280;7822;48.146;11.576;2023-05-02T07:11:13;95459.03;;;15.54;72.30
15444;BME280;7822;48.146;11.576;2023-05-02T07:13:41;95450.22;;;15.55;72.29
15444;BME280;7822;48.146;11.576;2023-05-02T07:16:09;95449.41;;;15.55;72.31
15444;BME280;7822;48.146;11.576;2023-05-02T07:18:36;95448.41;;;15.56;72.30
15444;BME280;7822;48.146;11.576;2023-05-02T07:21:04;95448.59;;;15.54;72.26
15444;BME280;7822;48.146;11.576;2023-05-02T07:23:31;95456.41;;;15.54;72.36
15444;BME280;7822;48.146;11.576;2023-05-02T07:25:59;95460.66;;;15.55;72.51
15444;BME280;7822;48.146;11.576;2023-05-02T07:28:27;95460.66;;;15.55;72.24
15444;BME280;7822;48.146;11.576;2023-05-02T07:30:55;95453.81;;;15.54;72.33
15444;BME280;7822;48.146;11.576;2023-05-02T07:33:22;95453.81;;;15.54;72.41
15444;BME280;7822;48.146;11.576;2023-05-02T07:35:50;95461.66;;;15.54;72.42
15444;BME280;7822;48.146;11.576;2023-05-02T07:38:18;95462.47;;;15.55;72.42
15444;BME280;7822;48.146;11.576;2023-05-02T07:40:45;95464.28;;;15.54;72.46
15444;BME280;7822;48.146;11.576;2023-05-02T07:43:13;95465.09;;;15.55;72.43
15444;BME280;7822;48.146;11.576;2023-05-02T07:45:42;95469.50;;;15.54;72.37
15444;BME280;7822;48.146;11.576;2023-05-02T07:48:10;95465.09;;;15.55;72.69
15444;BME280;7822;48.146;11.576;2023-05-02T07:50:38;95475.69;;;15.53;72.37
15444;BME280;7822;48.146;11.576;2023-05-02T07:53:05;95469.66;;;15.53;72.50
15444;BME280;7822;48.146;11.576;2023-05-02T07:55:33;95476.50;;;15.54;72.46
15444;BME280;7822;48.146;11.576;2023-05-02T07:58:00;95479.13;;;15.54;72.59
15444;BME280;7822;48.146;11.576;2023-05-02T08:00:28;95481.91;;;15.52;72.39
15444;BME280;7822;48.146;11.576;2023-05-02T08:02:57;95480.13;;;15.53;72.46
15444;BME280;7822;48.146;11.576;2023-05-02T08:05:25;95488.75;;;15.53;72.54
15444;BME280;7822;48.146;11.576;2023-05-02T08:07:52;95487.97;;;15.53;72.48
15444;BME280;7822;48.146;11.576;2023-05-02T08:10:20;95488.75;;;15.53;72.45
15444;BME280;7822;48.146;11.576;2023-05-02T08:12:49;95490.56;;;15.53;72.40
15444;BME280;7822;48.146;11.576;2023-05-02T08:15:17;95488.75;;;15.53;72.39
15444;BME280;7822;48.146;11.576;2023-05-02T08:17:44;95490.56;;;15.53;72.60
15444;BME280;7822;48.146;11.576;2023-05-02T08:20:13;95490.56;;;15.53;72.38
15444;BME280;7822;48.146;11.576;2023-05-02T08:22:40;95489.75;;;15.52;72.46
15444;BME280;7822;48.146;11.576;2023-05-02T08:25:08;95484.50;;;15.52;72.61
15444;BME280;7822;48.146;11.576;2023-05-02T08:27:36;95493.97;;;15.53;72.41
15444;BME280;7822;48.146;11.576;2023-05-02T08:30:03;95486.13;;;15.53;72.43
15444;BME280;7822;48.146;11.576;2023-05-02T08:32:32;95489.59;;;15.54;72.47
15444;BME280;7822;48.146;11.576;2023-05-02T08:34:59;95489.59;;;15.54;72.47
15444;BME280;7822;48.146;11.576;2023-05-02T08:37:29;95488.75;;;15.53;72.45
15444;BME280;7822;48.146;11.576;2023-05-02T08:39:57;95494.81;;;15.54;72.43
15444;BME280;7822;48.146;11.576;2023-05-02T08:42:25;95499.22;;;15.53;72.45
15444;BME280;7822;48.146;11.576;2023-05-02T08:44:52;95500.88;;;15.54;72.41
15444;BME280;7822;48.146;11.576;2023-05-02T08:47:20;95500.88;;;15.54;72.38
15444;BME280;7822;48.146;11.576;2023-05-02T08:49:49;95506.09;;;15.54;72.36
15444;BME280;7822;48.146;11.576;2023-05-02T08:52:18;95500.88;;;15.54;72.35
15444;BME280;7822;48.146;11.576;2023-05-02T08:54:47;95507.88;;;15.54;72.42
15444;BME280;7822;48.146;11.576;2023-05-02T08:57:16;95505.28;;;15.54;72.24
15444;BME280;7822;48.146;11.576;2023-05-02T08:59:44;95505.28;;;15.54;72.39
15444;BME280;7822;48.146;11.576;2023-05-02T09:02:15;95515.72;;;15.54;72.35
15444;BME280;7822;48.146;11.576;2023-05-02T09:04:47;95513.94;;;15.54;72.28
15444;BME280;7822;48.146;11.576;2023-05-02T09:07:19;95508.88;;;15.53;72.27
15444;BME280;7822;48.146;11.576;2023-05-02T09:09:48;95509.69;;;15.53;72.54
15444;BME280;7822;48.146;11.576;2023-05-02T09:12:16;95521.78;;;15.54;72.38
15444;BME280;7822;48.146;11.576;2023-05-02T09:14:43;95521.94;;;15.53;72.44
15444;BME280;7822;48.146;11.576;2023-05-02T09:17:11;95517.53;;;15.53;72.44
15444;BME280;7822;48.146;11.576;2023-05-02T09:19:39;95521.94;;;15.53;72.40
15444;BME280;7822;48.146;11.576;2023-05-02T09:22:06;95520.97;;;15.54;72.44
15444;BME280;7822;48.146;11.576;2023-05-02T09:24:34;95522.75;;;15.53;72.51
15444;BME280;7822;48.146;11.576;2023-05-02T09:27:03;95520.13;;;15.53;72.44
15444;BME280;7822;48.146;11.576;2023-05-02T09:29:31;95533.22;;;15.53;72.53
15444;BME280;7822;48.146;11.576;2023-05-02T09:32:03;95527.19;;;15.53;72.59
15444;BME280;7822;48.146;11.576;2023-05-02T09:34:32;95527.19;;;15.53;72.49
15444;BME280;7822;48.146;11.576;2023-05-02T09:37:00;95535.81;;;15.53;72.30
15444;BME280;7822;48.146;11.576;2023-05-02T09:39:30;95535.03;;;15.53;72.47
15444;BME280;7822;48.146;11.576;2023-05-02T09:41:58;95528.97;;;15.52;72.54
15444;BME280;7822;48.146;11.576;2023-05-02T09:44:36;95533.38;;;15.52;72.31
15444;BME280;7822;48.146;11.576;2023-05-02T09:47:04;95537.75;;;15.51;72.61
15444;BME280;7822;48.146;11.576;2023-05-02T09:49:39;95530.75;;;15.52;72.49
15444;BME280;7822;48.146;11.576;2023-05-02T09:52:10;95528.13;;;15.52;72.46
15444;BME280;7822;48.146;11.576;2023-05-02T09:54:38;95534.19;;;15.52;72.50
15444;BME280;7822;48.146;11.576;2023-05-02T09:57:05;95535.03;;;15.53;72.29
15444;BME280;7822;48.146;11.576;2023-05-02T09:59:34;95526.34;;;15.52;72.38
15444;BME280;7822;48.146;11.576;2023-05-02T10:02:02;95528.97;;;15.52;72.39
15444;BME280;7822;48.146;11.576;2023-05-02T10:04:30;95533.22;;;15.53;72.34
15444;BME280;7822;48.146;11.576;2023-05-02T10:06:58;95537.63;;;15.53;72.31
15444;BME280;7822;48.146;11.576;2023-05-02T10:09:26;95539.41;;;15.52;72.36
15444;BME280;7822;48.146;11.576;2023-05-02T10:11:57;95530.59;;;15.53;72.30
15444;BME280;7822;48.146;11.576;2023-05-02T10:14:28;95537.63;;;15.53;72.04
15444;BME280;7822;48.146;11.576;2023-05-02T10:17:00;95539.28;;;15.54;72.32
15444;BME280;7822;48.146;11.576;2023-05-02T10:19:32;95534.03;;;15.54;72.25
15444;BME280;7822;48.146;11.576;2023-05-02T10:22:04;95535.03;;;15.53;72.39
15444;BME280;7822;48.146;11.576;2023-05-02T10:24:32;95531.59;;;15.52;72.25
15444;BME280;7822;48.146;11.576;2023-05-02T10:26:59;95525.38;;;15.53;72.22
15444;BME280;7822;48.146;11.576;2023-05-02T10:29:28;95527.03;;;15.54;72.28
15444;BME280;7822;48.146;11.576;2023-05-02T10:31:56;95524.56;;;15.53;72.16
15444;BME280;7822;48.146;11.576;2023-05-02T10:34:25;95522.75;;;15.53;72.21
15444;BME280;7822;48.146;11.576;2023-05-02T10:36:53;95522.75;;;15.53;72.31
15444;BME280;7822;48.146;11.576;2023-05-02T10:39:21;95525.38;;;15.53;72.35
15444;BME280;7822;48.146;11.576;2023-05-02T10:41:50;95526.34;;;15.52;72.27
15444;BME280;7822;48.146;11.576;2023-05-02T10:44:30;95522.75;;;15.53;72.63
15444;BME280;7822;48.146;11.576;2023-05-02T10:46:58;95516.72;;;15.53;72.23
15444;BME280;7822;48.146;11.576;2023-05-02T10:49:27;95518.50;;;15.52;72.13
15444;BME280;7822;48.146;11.576;2023-05-02T10:51:55;95515.06;;;15.52;72.18
15444;BME280;7822;48.146;11.576;2023-05-02T10:54:22;95513.28;;;15.52;72.26
15444;BME280;7822;48.146;11.576;2023-05-02T10:57:03;95522.91;;;15.52;72.26
15444;BME280;7822;48.146;11.576;2023-05-02T10:59:32;95531.59;;;15.52;72.16
15444;BME280;7822;48.146;11.576;2023-05-02T11:02:00;95537.63;;;15.53;72.32
15444;BME280;7822;48.146;11.576;2023-05-02T11:07:19;95543.66;;;15.53;72.25
15444;BME280;7822;48.146;11.576;2023-05-02T11:09:46;95542.88;;;15.53;72.10
15444;BME280;7822;48.146;11.576;2023-05-02T11:14:56;95546.28;;;15.53;72.08
15444;BME280;7822;48.146;11.576;2023-05-02T11:17:24;95544.66;;;15.52;72.16
15444;BME280;7822;48.146;11.576;2023-05-02T11:22:52;95548.22;;;15.51;72.14
15444;BME280;7822;48.146;11.576;2023-05-02T11:25:36;95558.56;;;15.53;72.16
15444;BME280;7822;48.146;11.576;2023-05-02T11:28:05;95562.97;;;15.52;72.22
15444;BME280;7822;48.146;11.576;2023-05-02T11:30:37;95563.91;;;15.51;72.14
15444;BME280;7822;48.146;11.576;2023-05-02T11:33:12;95562.97;;;15.52;72.20
15444;BME280;7822;48.146;11.576;2023-05-02T11:35:42;95562.13;;;15.52;72.12
15444;BME280;7822;48.146;11.576;2023-05-02T11:38:12;95565.56;;;15.52;72.22
15444;BME280;7822;48.146;11.576;2023-05-02T11:40:40;95554.13;;;15.53;72.01
15444;BME280;7822;48.146;11.576;2023-05-02T11:43:16;95559.34;;;15.53;72.20
15444;BME280;7822;48.146;11.576;2023-05-02T11:45:44;95560.19;;;15.54;72.27
15444;BME280;7822;48.146;11.576;2023-05-02T11:48:11;95554.97;;;15.54;72.21
15444;BME280;7822;48.146;11.576;2023-05-02T11:50:42;95552.34;;;15.54;72.13
15444;BME280;7822;48.146;11.576;2023-05-02T11:53:17;95551.38;;;15.55;72.19
15444;BME280;7822;48.146;11.576;2023-05-02T11:55:47;95547.13;;;15.54;72.12
15444;BME280;7822;48.146;11.576;2023-05-02T11:58:16;95553.19;;;15.54;72.10
15444;BME280;7822;48.146;11.576;2023-05-02T12:00:44;95536.66;;;15.54;72.15
15444;BME280;7822;48.146;11.576;2023-05-02T12:03:23;95544.50;;;15.54;72.18
15444;BME280;7822;48.146;11.576;2023-05-02T12:05:50;95541.06;;;15.53;72.06
15444;BME280;7822;48.146;11.576;2023-05-02T12:08:21;95545.31;;;15.54;72.18
15444;BME280;7822;48.146;11.576;2023-05-02T12:10:49;95536.66;;;15.54;71.97
15444;BME280;7822;48.146;11.576;2023-05-02T12:13:19;95538.31;;;15.55;72.07
15444;BME280;7822;48.146;11.576;2023-05-02T12:15:47;95539.28;;;15.54;72.30
15444;BME280;7822;48.146;11.576;2023-05-02T12:18:15;95537.47;;;15.54;72.08
15444;BME280;7822;48.146;11.576;2023-05-02T12:20:46;95553.19;;;15.54;72.24
15444;BME280;7822;48.146;11.576;2023-05-02T12:23:14;95545.47;;;15.53;72.17
15444;BME280;7822;48.146;11.576;2023-05-02T12:25:43;95551.50;;;15.53;72.17
15444;BME280;7822;48.146;11.576;2023-05-02T12:28:10;95548.09;;;15.53;72.04
15444;BME280;7822;48.146;11.576;2023-05-02T12:30:38;95548.09;;;15.53;72.01
15444;BME280;7822;48.146;11.576;2023-05-02T12:33:06;95541.88;;;15.54;72.12
15444;BME280;7822;48.146;11.576;2023-05-02T12:35:34;95542.88;;;15.53;72.15
15444;BME280;7822;48.146;11.576;2023-05-02T12:38:08;95550.56;;;15.54;72.08
15444;BME280;7822;48.146;11.576;2023-05-02T12:40:37;95549.72;;;15.54;72.06
15444;BME280;7822;48.146;11.576;2023-05-02T12:43:06;95560.19;;;15.54;72.08
15444;BME280;7822;48.146;11.576;2023-05-02T12:45:36;95560.34;;;15.52;72.13
15444;BME280;7822;48.146;11.576;2023-05-02T12:48:16;95554.13;;;15.53;72.17
15444;BME280;7822;48.146;11.576;2023-05-02T12:50:44;95562.81;;;15.54;72.18
15444;BME280;7822;48.146;11.576;2023-05-02T12:53:11;95563.78;;;15.53;72.10
15444;BME280;7822;48.146;11.576;2023-05-02T12:55:39;95567.19;;;15.53;72.06
15444;BME280;7822;48.146;11.576;2023-05-02T12:58:08;95561.16;;;15.53;72.20
15444;BME280;7822;48.146;11.576;2023-05-02T13:00:36;95561.16;;;15.53;72.16
15444;BME280;7822;48.146;11.576;2023-05-02T13:03:04;95565.56;;;15.52;72.17
15444;BME280;7822;48.146;11.576;2023-05-02T13:05:31;95567.19;;;15.53;72.21
15444;BME280;7822;48.146;11.576;2023-05-02T13:07:59;95569.03;;;15.53;72.05
15444;BME280;7822;48.146;11.576;2023-05-02T13:10:27;95570.81;;;15.52;72.14
15444;BME280;7822;48.146;11.576;2023-05-02T13:12:54;95567.19;;;15.53;72.14
15444;BME280;7822;48.146;11.576;2023-05-02T13:15:23;95565.41;;;15.54;72.07
15444;BME280;7822;48.146;11.576;2023-05-02T13:17:51;95566.41;;;15.53;72.16